Time;durP1;ratioP1;P1;durP2;ratioP2;P2;SDS_P1;SDS_P2;PMS_P1;PMS_P2;Temp;Humidity;BMP_temperature;BMP_pressure;BME280_temperature;BME280_humidity;BME280_pressure;Samples;Min_cycle;Max_cycle;Signal;HPM_P1;HPM_P2
2022/09/05 00:00:13;;;;;;;7.03;4.05;;;;;;;18.30;66.26;101739.06;5053815;28;20033;-59
2022/09/05 00:02:57;;;;;;;7.53;4.13;;;;;;;18.15;66.83;101718.34;5053266;28;20036;-61
2022/09/05 00:05:43;;;;;;;8.48;4.13;;;;;;;18.22;66.45;101729.59;5053637;28;20387;-59
2022/09/05 00:08:35;;;;;;;5.72;3.63;;;;;;;18.15;66.74;101723.66;5052671;28;20039;-59
2022/09/05 00:11:10;;;;;;;7.63;4.30;;;;;;;18.19;67.85;101730.56;5053432;28;20064;-58
2022/09/05 00:13:45;;;;;;;10.85;4.55;;;;;;;18.09;67.96;101723.81;5053330;28;20025;-58
2022/09/05 00:16:30;;;;;;;12.88;4.93;;;;;;;18.06;68.25;101722.13;5053307;28;20048;-59
2022/09/05 00:19:01;;;;;;;7.97;4.25;;;;;;;18.03;68.43;101731.94;5052748;28;20486;-59
2022/09/05 00:21:35;;;;;;;8.98;4.93;;;;;;;17.95;68.36;101728.69;5053120;28;20047;-60
2022/09/05 00:24:21;;;;;;;10.07;4.40;;;;;;;17.86;67.87;101727.16;5052766;28;20041;-60
2022/09/05 00:27:09;;;;;;;9.95;4.50;;;;;;;17.70;69.62;101729.38;5052989;28;20051;-61
2022/09/05 00:29:40;;;;;;;12.23;4.22;;;;;;;17.57;69.86;101733.25;5052702;28;20051;-60
2022/09/05 00:32:37;;;;;;;9.48;4.32;;;;;;;17.56;69.92;101723.59;5052924;28;20410;-60
2022/09/05 00:35:27;;;;;;;10.23;4.40;;;;;;;17.64;68.96;101719.00;5052966;28;20037;-60
2022/09/05 00:37:53;;;;;;;9.20;4.35;;;;;;;17.54;69.93;101727.19;5052848;28;20037;-61
2022/09/05 00:40:22;;;;;;;10.30;4.50;;;;;;;17.54;70.03;101722.75;5052458;28;20033;-60
2022/09/05 00:42:52;;;;;;;9.15;4.55;;;;;;;17.57;70.15;101729.75;5052118;28;20053;-60
2022/09/05 00:45:33;;;;;;;6.72;4.65;;;;;;;17.60;69.45;101716.44;5052651;28;20043;-58
2022/09/05 00:48:21;;;;;;;6.82;4.32;;;;;;;17.56;69.74;101723.59;5052494;28;20107;-61
2022/09/05 00:50:56;;;;;;;6.85;4.50;;;;;;;17.47;70.26;101723.00;5052651;28;20041;-60
2022/09/05 00:53:35;;;;;;;8.45;4.75;;;;;;;17.47;70.10;101723.84;5052673;28;20415;-61
2022/09/05 00:56:35;;;;;;;6.65;4.47;;;;;;;17.49;69.73;101718.53;5052287;28;20029;-59
2022/09/05 00:59:29;;;;;;;5.15;4.25;;;;;;;17.51;68.99;101714.91;5052352;28;20313;-59
2022/09/05 01:02:27;;;;;;;5.68;4.68;;;;;;;17.43;69.77;101713.41;5052023;28;20036;-58
2022/09/05 01:05:02;;;;;;;5.82;4.75;;;;;;;17.46;70.55;101723.91;5052215;28;20407;-61
2022/09/05 01:07:43;;;;;;;7.82;4.80;;;;;;;17.46;70.01;101718.59;5052214;28;20375;-61
2022/09/05 01:10:26;;;;;;;7.68;4.95;;;;;;;17.42;71.05;101723.09;5052305;28;20029;-60
2022/09/05 01:13:39;;;;;;;8.35;4.68;;;;;;;17.46;69.86;101721.25;5052120;28;20349;-59
2022/09/05 01:16:23;;;;;;;6.93;4.43;;;;;;;17.42;70.69;101722.25;5005341;28;20087;-59
2022/09/05 01:19:26;;;;;;;7.18;4.63;;;;;;;17.42;70.17;101717.81;5051763;28;20120;-60
2022/09/05 01:22:23;;;;;;;5.57;4.45;;;;;;;17.42;70.62;101723.09;5028178;28;20408;-59
2022/09/05 01:25:06;;;;;;;6.90;5.20;;;;;;;17.36;71.02;101712.69;5051995;28;20033;-59
2022/09/05 01:27:50;;;;;;;14.30;5.63;;;;;;;17.35;71.88;101716.22;5051816;28;20033;-59
2022/09/05 01:30:25;;;;;;;7.75;5.13;;;;;;;17.24;72.03;101720.97;5051941;28;20033;-58
2022/09/05 01:33:33;;;;;;;9.38;5.10;;;;;;;17.31;71.14;101719.91;5051732;28;20366;-59
2022/09/05 01:36:18;;;;;;;8.25;5.40;;;;;;;17.26;71.50;101713.84;5051678;28;20028;-60
2022/09/05 01:39:03;;;;;;;7.15;5.32;;;;;;;17.28;71.47;101717.34;5051347;28;20518;-60
2022/09/05 01:41:52;;;;;;;8.93;5.32;;;;;;;17.25;72.29;101715.63;5051117;28;20060;-59
2022/09/05 01:44:45;;;;;;;9.68;5.68;;;;;;;17.28;71.41;101714.69;5051532;28;20048;-60
2022/09/05 01:47:41;;;;;;;8.50;5.35;;;;;;;17.27;71.90;101718.25;5025100;28;20040;-60
2022/09/05 01:50:09;;;;;;;9.32;5.53;;;;;;;17.21;72.86;101713.09;5051522;28;20025;-60
2022/09/05 01:52:56;;;;;;;7.43;5.43;;;;;;;17.16;73.13;101715.88;5051458;28;20119;-59
2022/09/05 01:55:49;;;;;;;11.73;5.72;;;;;;;17.19;72.28;101706.97;5051671;28;20136;-59
2022/09/05 01:58:19;;;;;;;14.45;5.90;;;;;;;17.16;73.19;101709.69;5051515;28;20131;-60
2022/09/05 02:01:13;;;;;;;12.82;5.82;;;;;;;17.11;72.99;101715.16;5051200;28;20355;-61
2022/09/05 02:04:17;;;;;;;11.52;6.25;;;;;;;17.08;73.05;101717.84;5051368;28;20037;-60
2022/09/05 02:07:01;;;;;;;19.40;6.25;;;;;;;17.03;74.21;101714.47;5019766;28;20045;-61
2022/09/05 02:09:48;;;;;;;26.75;7.90;;;;;;;17.02;74.75;101713.59;5051183;28;20477;-60
2022/09/05 02:12:13;;;;;;;25.27;7.22;;;;;;;17.00;74.95;101712.75;5051539;28;20033;-60
2022/09/05 02:14:58;;;;;;;17.80;7.10;;;;;;;16.92;75.49;101714.75;5051458;28;20036;-59
2022/09/05 02:17:50;;;;;;;22.05;7.78;;;;;;;16.96;74.47;101718.19;5051298;28;20719;-59
2022/09/05 02:20:30;;;;;;;22.48;7.30;;;;;;;16.95;74.93;101721.75;5051228;28;20371;-61
2022/09/05 02:23:08;;;;;;;24.15;7.72;;;;;;;16.96;75.71;101723.47;5051261;28;20025;-59
2022/09/05 02:25:49;;;;;;;26.75;7.80;;;;;;;16.94;75.04;101720.88;5051369;28;20043;-61
2022/09/05 02:28:25;;;;;;;21.08;8.13;;;;;;;16.94;75.50;101718.22;5051312;28;20037;-59
2022/09/05 02:30:58;;;;;;;25.35;7.25;;;;;;;16.92;75.86;101722.69;5052074;28;20040;-60
2022/09/05 02:33:30;;;;;;;22.48;7.78;;;;;;;16.94;75.50;101730.59;5055433;28;20448;-61
2022/09/05 02:36:04;;;;;;;23.60;7.65;;;;;;;16.87;75.82;101718.41;5055330;28;20060;-60
2022/09/05 02:39:14;;;;;;;28.48;7.28;;;;;;;16.92;75.07;101727.09;5055220;28;20041;-60
2022/09/05 02:41:53;;;;;;;27.10;7.43;;;;;;;16.84;75.88;101727.28;4992841;28;20374;-60
2022/09/05 02:44:29;;;;;;;28.20;7.50;;;;;;;16.82;76.25;101725.56;5051281;28;20063;-61
2022/09/05 02:46:59;;;;;;;25.92;7.40;;;;;;;16.83;76.25;101725.53;5055195;28;20045;-60
2022/09/05 02:50:02;;;;;;;31.67;8.35;;;;;;;16.84;75.51;101723.78;5054893;28;20106;-60
2022/09/05 02:52:30;;;;;;;25.58;7.80;;;;;;;16.78;76.15;101723.94;5054877;28;20159;-59
2022/09/05 02:54:58;;;;;;;28.60;7.35;;;;;;;16.76;76.61;101723.97;5053521;28;20414;-59
2022/09/05 02:57:41;;;;;;;24.27;7.65;;;;;;;16.74;75.63;101720.50;5054981;28;20127;-60
2022/09/05 03:00:27;;;;;;;30.42;8.07;;;;;;;16.69;76.46;101720.59;5054629;28;20388;-59
2022/09/05 03:03:17;;;;;;;23.65;8.15;;;;;;;16.69;77.20;101725.91;5054659;28;20094;-60
2022/09/05 03:05:45;;;;;;;19.73;7.18;;;;;;;16.67;77.25;101722.41;5054593;28;20048;-61
2022/09/05 03:08:28;;;;;;;24.33;8.77;;;;;;;16.59;77.64;101726.13;5054599;28;20037;-59
2022/09/05 03:11:32;;;;;;;24.13;7.75;;;;;;;16.57;77.43;101726.16;5054521;28;20041;-60
2022/09/05 03:14:17;;;;;;;26.85;8.00;;;;;;;16.55;77.42;101720.03;5054166;28;20039;-60
2022/09/05 03:16:54;;;;;;;24.90;7.85;;;;;;;16.53;78.59;101729.78;5054489;28;20044;-60
2022/09/05 03:19:53;;;;;;;23.33;8.20;;;;;;;16.53;77.73;101729.78;5054545;28;20079;-59
2022/09/05 03:22:27;;;;;;;22.00;7.30;;;;;;;16.47;78.93;101727.28;5053894;28;20396;-59
2022/09/05 03:25:08;;;;;;;29.05;8.05;;;;;;;16.48;78.58;101721.09;5054295;28;20037;-59
2022/09/05 03:28:02;;;;;;;24.15;8.25;;;;;;;16.45;78.43;101726.44;5053856;28;20117;-61
2022/09/05 03:30:59;;;;;;;22.88;8.35;;;;;;;16.45;78.80;101728.25;5054055;28;20025;-61
2022/09/05 03:33:42;;;;;;;23.35;7.63;;;;;;;16.39;78.59;101723.09;5053989;28;20048;-60
2022/09/05 03:36:40;;;;;;;19.20;7.22;;;;;;;16.38;78.98;101721.34;5054073;28;20341;-60
2022/09/05 03:39:44;;;;;;;18.45;7.50;;;;;;;16.33;78.66;101718.81;5053989;28;20068;-59
2022/09/05 03:42:26;;;;;;;14.32;7.03;;;;;;;16.29;79.56;101719.78;5052758;28;20499;-58
2022/09/05 03:45:17;;;;;;;16.27;7.57;;;;;;;16.08;79.30;101680.69;5053735;28;20131;-60
2022/09/05 03:48:11;;;;;;;18.80;7.40;;;;;;;16.25;79.34;101716.34;5054117;28;20025;-60
2022/09/05 03:50:52;;;;;;;16.13;7.55;;;;;;;16.29;79.26;101722.41;5053913;28;20079;-59
2022/09/05 03:53:35;;;;;;;17.00;7.90;;;;;;;16.31;79.99;101720.63;5053347;28;20424;-59
2022/09/05 03:56:43;;;;;;;15.30;8.20;;;;;;;16.31;79.47;101724.13;5053639;28;20083;-60
2022/09/05 03:59:40;;;;;;;16.35;7.80;;;;;;;16.25;79.92;101713.72;5053550;28;20044;-58
2022/09/05 04:02:10;;;;;;;14.80;8.00;;;;;;;16.23;80.72;101704.97;5053707;28;20049;-59
2022/09/05 04:04:41;;;;;;;16.52;7.28;;;;;;;16.24;80.92;101716.41;5053544;28;20037;-59
2022/09/05 04:07:15;;;;;;;12.88;7.25;;;;;;;16.22;80.30;101720.84;5053599;28;20073;-60
2022/09/05 04:09:52;;;;;;;11.38;7.25;;;;;;;16.12;80.91;101709.59;5053451;28;20075;-60
2022/09/05 04:12:24;;;;;;;12.00;7.43;;;;;;;16.12;81.39;101722.81;5053285;28;20037;-61
2022/09/05 04:15:05;;;;;;;11.93;7.30;;;;;;;16.13;81.05;101721.91;5053390;28;20044;-59
2022/09/05 04:17:34;;;;;;;13.25;7.13;;;;;;;16.11;80.90;101728.13;5053327;28;20056;-59
2022/09/05 04:20:27;;;;;;;13.77;7.30;;;;;;;16.06;81.07;101720.31;5052677;28;20037;-61
2022/09/05 04:23:05;;;;;;;10.68;7.18;;;;;;;16.07;80.83;101727.34;5053126;28;20032;-59
2022/09/05 04:25:57;;;;;;;14.00;7.70;;;;;;;16.01;81.34;101714.25;5052837;28;20075;-58
2022/09/05 04:28:41;;;;;;;;;;;;;;;16.08;78.88;101721.16;5053584;28;20041;-58
2022/09/05 04:31:12;;;;;;;11.73;7.82;;;;;;;16.01;81.70;101720.41;5053539;28;19926;-59
2022/09/05 04:33:46;;;;;;;10.80;7.60;;;;;;;15.93;82.00;101722.31;5073012;28;20101;-59
2022/09/05 04:36:17;;;;;;;10.70;7.82;;;;;;;15.88;81.95;101712.78;5072715;28;20040;-59
2022/09/05 04:38:43;;;;;;;10.83;8.27;;;;;;;15.92;82.67;101733.81;5072929;28;20337;-60
2022/09/05 04:41:18;;;;;;;12.35;7.53;;;;;;;15.93;82.20;101722.31;5072710;28;20302;-59
2022/09/05 04:43:50;;;;;;;12.30;7.65;;;;;;;15.93;82.33;101737.34;5072432;28;20035;-59
2022/09/05 04:46:27;;;;;;;10.88;8.05;;;;;;;15.87;82.05;101732.16;5072786;28;20040;-60
2022/09/05 04:49:23;;;;;;;12.90;8.45;;;;;;;15.83;82.27;101736.63;5072739;28;20035;-60
2022/09/05 04:52:17;;;;;;;12.07;8.65;;;;;;;15.85;81.92;101733.97;5072440;28;20036;-59
2022/09/05 04:54:50;;;;;;;17.17;8.43;;;;;;;15.88;82.25;101733.91;5072408;28;20056;-59
2022/09/05 04:57:37;;;;;;;11.23;8.52;;;;;;;15.85;82.38;101750.69;5072750;28;20067;-60
2022/09/05 05:00:24;;;;;;;13.05;8.52;;;;;;;15.86;81.87;101736.56;5072287;28;20111;-58
2022/09/05 05:02:55;;;;;;;9.98;8.60;;;;;;;15.86;82.69;101746.25;5072410;28;20032;-59
2022/09/05 05:05:42;;;;;;;14.60;9.02;;;;;;;15.82;83.22;101766.56;5072580;28;20033;-59
2022/09/05 05:08:14;;;;;;;13.05;8.23;;;;;;;15.84;82.79;101751.56;5072365;28;20035;-59
2022/09/05 05:10:47;;;;;;;9.75;7.72;;;;;;;15.81;82.97;101741.06;5072335;28;20136;-59
2022/09/05 05:13:33;;;;;;;11.45;8.50;;;;;;;15.78;82.13;101737.63;5072145;28;20046;-59
2022/09/05 05:16:10;;;;;;;14.93;8.25;;;;;;;15.89;82.58;101756.78;5072246;28;20118;-59
2022/09/05 05:18:40;;;;;;;13.43;8.20;;;;;;;15.85;82.81;101755.09;5071941;28;20398;-59
2022/09/05 05:21:12;;;;;;;12.63;8.27;;;;;;;15.88;82.96;101755.03;5071921;28;20028;-59
2022/09/05 05:23:45;;;;;;;9.85;7.85;;;;;;;15.86;82.77;101748.91;5071840;28;20036;-61
2022/09/05 05:26:23;;;;;;;13.40;8.15;;;;;;;15.87;82.90;101751.50;5071765;28;20036;-57
2022/09/05 05:29:00;;;;;;;12.90;9.00;;;;;;;15.89;83.09;101754.13;5071950;28;20059;-59
2022/09/05 05:31:29;;;;;;;11.57;7.95;;;;;;;15.92;83.07;101754.94;5071747;28;20455;-61
2022/09/05 05:34:02;;;;;;;11.05;8.52;;;;;;;15.95;83.03;101759.25;5071595;28;20527;-60
2022/09/05 05:36:38;;;;;;;13.25;8.73;;;;;;;15.99;82.79;101755.66;5071833;28;20119;-59
2022/09/05 05:39:09;;;;;;;12.52;8.20;;;;;;;15.99;83.29;101763.59;5071819;28;20037;-59
2022/09/05 05:41:50;;;;;;;12.07;8.57;;;;;;;15.99;82.23;101760.94;5071406;28;20052;-63
2022/09/05 05:44:36;;;;;;;13.32;9.07;;;;;;;16.01;82.06;101751.22;5071655;28;20032;-59
2022/09/05 05:47:08;;;;;;;13.43;8.80;;;;;;;16.03;82.91;101752.06;5071861;28;20044;-60
2022/09/05 05:49:42;;;;;;;12.73;8.88;;;;;;;16.07;82.33;101748.47;5071806;28;20064;-59
2022/09/05 05:52:17;;;;;;;13.07;9.55;;;;;;;16.15;82.11;101758.84;5071868;28;20036;-60
2022/09/05 05:54:52;;;;;;;16.38;9.80;;;;;;;16.11;82.65;101758.03;5071595;28;20043;-60
2022/09/05 05:57:42;;;;;;;13.30;9.65;;;;;;;16.25;81.76;101755.97;5071589;28;20036;-61
2022/09/05 06:00:18;;;;;;;12.02;9.98;;;;;;;16.36;81.70;101764.53;5071475;28;20149;-61
2022/09/05 06:03:17;;;;;;;13.48;9.48;;;;;;;16.44;81.32;101768.78;5055184;28;20033;-60
2022/09/05 06:05:58;;;;;;;12.05;9.90;;;;;;;16.50;81.58;101763.31;5050950;28;20127;-56
2022/09/05 06:09:02;;;;;;;16.50;10.02;;;;;;;16.55;80.55;101770.25;5051408;28;20090;-60
2022/09/05 06:12:05;;;;;;;14.48;10.63;;;;;;;16.59;80.88;101769.28;5049867;28;20049;-61
2022/09/05 06:14:58;;;;;;;16.67;10.68;;;;;;;16.68;81.30;101773.50;5051230;28;20025;-60
2022/09/05 06:17:44;;;;;;;16.38;10.60;;;;;;;16.78;80.51;101772.41;5051025;28;20036;-53
2022/09/05 06:20:38;;;;;;;18.00;9.90;;;;;;;16.99;80.24;101779.78;5051333;28;20048;-60
2022/09/05 06:23:29;;;;;;;13.52;10.10;;;;;;;17.11;79.66;101781.25;5051371;28;20064;-60
2022/09/05 06:26:16;;;;;;;15.18;10.93;;;;;;;17.23;79.03;101767.72;5051076;28;20036;-60
2022/09/05 06:28:54;;;;;;;15.43;10.63;;;;;;;17.34;78.57;101773.56;5051179;28;20079;-59
2022/09/05 06:31:58;;;;;;;16.08;10.52;;;;;;;17.57;77.61;101774.75;5051277;28;20604;-60
2022/09/05 06:34:58;;;;;;;18.60;10.60;;;;;;;17.71;76.95;101775.25;5034559;28;20049;-59
2022/09/05 06:37:42;;;;;;;16.90;10.32;;;;;;;17.90;76.32;101768.53;5050988;28;20490;-59
2022/09/05 06:40:24;;;;;;;16.35;10.10;;;;;;;18.11;74.93;101774.97;5051021;28;20029;-59
2022/09/05 06:43:09;;;;;;;15.80;9.70;;;;;;;18.27;74.64;101776.25;5051086;28;20087;-60
2022/09/05 06:46:00;;;;;;;16.98;10.02;;;;;;;18.46;73.72;101775.69;5051170;28;20079;-61
2022/09/05 06:48:55;;;;;;;11.23;8.27;;;;;;;18.55;73.58;101767.44;5050949;28;20048;-59
2022/09/05 06:51:45;;;;;;;11.38;8.40;;;;;;;18.79;71.80;101774.66;5051042;28;20040;-60
2022/09/05 06:54:27;;;;;;;13.95;8.55;;;;;;;18.97;70.49;101766.09;5051117;28;20086;-60
2022/09/05 06:57:24;;;;;;;14.15;7.38;;;;;;;19.15;70.37;101775.22;5050950;28;20037;-61
2022/09/05 07:00:07;;;;;;;11.35;7.55;;;;;;;19.30;69.58;101776.47;5050904;28;20037;-61
2022/09/05 07:02:53;;;;;;;13.48;8.02;;;;;;;19.40;67.13;101769.91;5050799;28;20064;-61
2022/09/05 07:05:25;;;;;;;13.15;7.03;;;;;;;19.49;67.54;101774.91;5043048;28;20095;-62
2022/09/05 07:08:11;;;;;;;17.13;7.43;;;;;;;19.63;65.93;101787.72;5050932;28;20041;-61
2022/09/05 07:10:40;;;;;;;9.82;6.70;;;;;;;19.73;65.71;101783.81;5050651;28;20071;-53
2022/09/05 07:13:23;;;;;;;10.00;6.25;;;;;;;19.80;66.13;101790.63;5050729;28;20460;-61
2022/09/05 07:15:48;;;;;;;8.80;6.07;;;;;;;19.88;64.55;101787.69;5050731;28;20052;-58
2022/09/05 07:18:42;;;;;;;7.60;5.87;;;;;;;19.91;65.05;101790.25;5051787;28;20055;-60
2022/09/05 07:21:29;;;;;;;6.97;5.78;;;;;;;19.97;65.58;101782.91;5054247;28;20443;-60
2022/09/05 07:24:02;;;;;;;9.15;5.60;;;;;;;20.07;63.36;101783.44;5054279;28;20528;-61
2022/09/05 07:26:31;;;;;;;9.43;5.82;;;;;;;20.17;63.24;101779.47;5054313;28;20036;-60
2022/09/05 07:29:03;;;;;;;7.35;5.70;;;;;;;20.29;62.76;101776.34;5054211;28;20048;-61
2022/09/05 07:31:32;;;;;;;7.70;5.10;;;;;;;20.32;63.13;101789.53;5053636;28;20045;-60
2022/09/05 07:34:21;;;;;;;9.52;5.47;;;;;;;20.39;62.56;101791.06;5054107;28;20344;-61
2022/09/05 07:36:55;;;;;;;9.48;5.28;;;;;;;20.48;61.56;101784.50;5053622;28;20025;-60
2022/09/05 07:39:33;;;;;;;7.03;5.07;;;;;;;20.55;60.86;101791.31;5054030;28;20028;-60
2022/09/05 07:42:05;;;;;;;9.23;4.30;;;;;;;20.66;59.71;101799.72;5053239;28;20142;-61
2022/09/05 07:44:35;;;;;;;5.32;3.80;;;;;;;20.68;59.40;101789.03;5053552;28;20090;-61
2022/09/05 07:47:06;;;;;;;8.35;3.78;;;;;;;20.77;58.48;101796.66;5053468;28;20044;-61
2022/09/05 07:49:36;;;;;;;4.83;3.60;;;;;;;20.88;58.10;101799.72;5053670;28;20025;-61
2022/09/05 07:52:18;;;;;;;6.78;3.90;;;;;;;20.91;58.55;101793.41;5056444;28;20609;-59
2022/09/05 07:54:47;;;;;;;9.73;3.42;;;;;;;21.01;57.55;101798.28;5071394;28;20043;-59
2022/09/05 07:57:35;;;;;;;7.85;3.25;;;;;;;21.13;58.42;101797.75;5072391;28;20560;-60
2022/09/05 08:00:07;;;;;;;6.30;3.33;;;;;;;21.27;56.61;101802.56;5073483;28;20095;-61
2022/09/05 08:02:33;;;;;;;8.40;3.00;;;;;;;21.31;56.97;101803.28;5073348;28;20036;-59
2022/09/05 08:05:03;;;;;;;6.38;3.03;;;;;;;21.46;56.78;101803.50;5073348;28;20078;-59
2022/09/05 08:07:36;;;;;;;6.40;3.13;;;;;;;21.59;56.34;101800.31;5073418;28;20044;-59
2022/09/05 08:10:11;;;;;;;5.68;2.90;;;;;;;21.63;55.63;101800.09;5072885;28;20028;-60
2022/09/05 08:12:42;;;;;;;8.68;3.40;;;;;;;21.74;55.51;101795.16;5073139;28;20028;-61
2022/09/05 08:15:23;;;;;;;4.20;2.97;;;;;;;21.87;55.20;101795.47;5073334;28;20067;-59
2022/09/05 08:18:00;;;;;;;5.45;3.10;;;;;;;21.97;54.30;101793.25;5072532;28;20048;-61
2022/09/05 08:20:38;;;;;;;6.72;2.90;;;;;;;21.98;54.69;101781.66;5072750;28;20028;-59
2022/09/05 08:23:28;;;;;;;6.88;2.65;;;;;;;22.17;54.96;101793.22;5072687;28;20443;-61
2022/09/05 08:26:21;;;;;;;5.00;2.65;;;;;;;22.28;54.65;101798.06;5073089;28;20028;-60
2022/09/05 08:29:05;;;;;;;6.50;2.85;;;;;;;22.41;53.42;101800.06;5072528;28;20043;-60
2022/09/05 08:31:41;;;;;;;5.20;2.92;;;;;;;22.56;52.57;101798.47;5072770;28;20044;-59
2022/09/05 08:34:17;;;;;;;4.95;2.92;;;;;;;22.68;51.81;101802.38;5072600;28;20386;-59
2022/09/05 08:36:46;;;;;;;5.00;2.78;;;;;;;22.75;51.41;101798.44;5072688;28;20107;-60
2022/09/05 08:39:17;;;;;;;5.15;2.58;;;;;;;22.91;50.88;101804.78;5072396;28;20036;-59
2022/09/05 08:42:12;;;;;;;4.63;2.60;;;;;;;22.99;51.27;101802.63;5072393;28;20063;-61
2022/09/05 08:44:39;;;;;;;5.35;2.60;;;;;;;23.24;48.98;101802.22;5072483;28;20470;-62
2022/09/05 08:47:13;;;;;;;5.70;2.50;;;;;;;23.41;49.36;101804.03;5072420;28;20040;-60
2022/09/05 08:49:57;;;;;;;4.18;2.15;;;;;;;23.54;48.39;101794.50;5072312;28;20051;-60
2022/09/05 08:53:00;;;;;;;4.65;2.10;;;;;;;23.77;48.44;101782.56;5072324;28;20112;-62
2022/09/05 08:55:37;;;;;;;4.15;2.35;;;;;;;24.46;47.00;101779.66;5072300;28;20661;-59
2022/09/05 08:58:44;;;;;;;6.05;2.50;;;;;;;24.88;47.62;101784.38;5072066;28;20040;-60
2022/09/05 09:01:28;;;;;;;4.60;2.42;;;;;;;24.91;45.13;101778.84;5072247;28;20443;-60
2022/09/05 09:04:04;;;;;;;4.75;2.28;;;;;;;24.90;43.96;101779.78;5072003;28;20039;-61
2022/09/05 09:06:48;;;;;;;5.47;2.25;;;;;;;24.86;45.29;101773.75;5072133;28;20033;-60
2022/09/05 09:09:33;;;;;;;4.57;1.92;;;;;;;24.95;44.20;101780.41;5072239;28;20036;-61
2022/09/05 09:12:22;;;;;;;4.78;1.95;;;;;;;25.00;44.82;101775.66;5071978;28;20032;-60
2022/09/05 09:14:50;;;;;;;4.22;2.10;;;;;;;25.16;44.02;101772.91;5071685;28;20033;-60
2022/09/05 09:17:22;;;;;;;5.75;2.25;;;;;;;25.29;44.08;101773.91;5071920;28;20092;-60
2022/09/05 09:19:51;;;;;;;8.07;2.40;;;;;;;25.51;42.80;101777.00;5071885;28;20401;-60
2022/09/05 09:22:38;;;;;;;7.60;2.30;;;;;;;25.64;43.12;101769.97;5071847;28;20114;-60
2022/09/05 09:25:13;;;;;;;4.03;2.17;;;;;;;25.79;42.94;101768.19;5071663;28;20047;-60
2022/09/05 09:27:51;;;;;;;3.22;2.15;;;;;;;25.97;42.55;101760.78;5071588;28;20033;-60
2022/09/05 09:30:17;;;;;;;6.63;2.20;;;;;;;26.15;40.75;101761.44;5071742;28;20117;-61
2022/09/05 09:32:46;;;;;;;4.78;1.70;;;;;;;26.30;39.21;101757.81;5071767;28;20082;-60
2022/09/05 09:35:43;;;;;;;3.10;2.00;;;;;;;26.42;40.47;101757.00;5071512;28;20067;-58
2022/09/05 09:38:14;;;;;;;3.75;1.92;;;;;;;26.51;39.80;101753.69;5069200;28;20043;-61
2022/09/05 09:41:20;;;;;;;4.82;2.00;;;;;;;26.61;39.31;101751.28;5070782;28;20064;-61
2022/09/05 09:44:07;;;;;;;4.80;2.00;;;;;;;26.78;38.48;101759.06;5071351;28;20070;-62
2022/09/05 09:46:42;;;;;;;4.95;1.60;;;;;;;26.88;38.33;101749.44;5071666;28;20072;-62
2022/09/05 09:49:31;;;;;;;5.07;2.00;;;;;;;27.01;38.43;101760.25;5071323;28;20458;-60
2022/09/05 09:52:14;;;;;;;3.58;1.73;;;;;;;27.14;37.98;101750.38;5071368;28;20592;-59
2022/09/05 09:54:55;;;;;;;5.20;1.70;;;;;;;27.27;36.52;101745.03;5071496;28;20463;-61
2022/09/05 09:57:23;;;;;;;4.93;1.93;;;;;;;27.28;35.98;101754.81;5071519;28;20029;-60
2022/09/05 10:00:07;;;;;;;3.15;1.83;;;;;;;27.46;36.41;101748.16;5071418;28;20083;-59
2022/09/05 10:03:00;;;;;;;5.30;1.60;;;;;;;27.62;36.32;101748.84;5071410;28;20033;-60
2022/09/05 10:06:03;;;;;;;7.75;1.80;;;;;;;27.68;36.48;101743.03;5071285;28;20036;-61
2022/09/05 10:08:50;;;;;;;2.55;1.70;;;;;;;27.66;36.60;101742.28;5071042;28;20075;-59
2022/09/05 10:11:35;;;;;;;4.88;1.65;;;;;;;27.84;35.90;101733.88;5071081;28;20769;-60
2022/09/05 10:14:17;;;;;;;3.42;1.50;;;;;;;27.98;35.25;101731.88;5071399;28;20040;-60
2022/09/05 10:17:09;;;;;;;2.25;1.50;;;;;;;28.08;35.31;101726.69;5070695;28;20114;-61
2022/09/05 10:19:44;;;;;;;;;;;;;;;28.10;35.96;101726.56;5071734;28;20040;-60
2022/09/05 10:22:49;;;;;;;2.30;1.48;;;;;;;28.33;33.65;101720.41;5071351;28;19912;-61
2022/09/05 10:25:55;;;;;;;1.90;1.58;;;;;;;28.31;34.51;101725.03;5070305;28;20372;-61
2022/09/05 10:28:59;;;;;;;2.65;1.60;;;;;;;28.36;33.77;101717.50;5061038;28;20073;-61
2022/09/05 10:31:56;;;;;;;2.65;1.45;;;;;;;28.50;33.20;101713.75;5050648;28;20040;-61
2022/09/05 10:34:24;;;;;;;3.13;1.50;;;;;;;28.71;32.70;101720.22;5047342;28;20045;-60
2022/09/05 10:36:53;;;;;;;2.90;1.40;;;;;;;28.62;32.29;101713.69;5050806;28;20033;-61
2022/09/05 10:39:30;;;;;;;2.75;1.50;;;;;;;28.78;32.87;101713.38;5050644;28;20041;-60
2022/09/05 10:42:01;;;;;;;4.25;1.38;;;;;;;28.72;32.66;101712.03;5050436;28;20060;-60
2022/09/05 10:44:39;;;;;;;2.13;1.25;;;;;;;28.70;32.06;101705.91;5050750;28;20098;-62
2022/09/05 10:47:45;;;;;;;4.28;1.67;;;;;;;28.87;33.18;101706.47;5050615;28;20095;-60
2022/09/05 10:50:29;;;;;;;2.63;1.55;;;;;;;28.79;32.57;101706.16;5050744;28;20040;-59
2022/09/05 10:53:33;;;;;;;3.83;1.58;;;;;;;29.01;31.90;101699.03;5053106;28;20067;-61
2022/09/05 10:56:05;;;;;;;4.88;1.50;;;;;;;29.03;31.18;101702.47;5054657;28;20055;-60
2022/09/05 10:58:45;;;;;;;1.92;1.40;;;;;;;29.18;31.14;101704.97;5054617;28;20041;-59
2022/09/05 11:01:36;;;;;;;3.88;1.40;;;;;;;29.26;31.62;101700.69;5054577;28;20337;-62
2022/09/05 11:04:04;;;;;;;2.78;1.50;;;;;;;29.32;30.94;101691.25;5054354;28;20128;-60
2022/09/05 11:06:52;;;;;;;2.90;1.50;;;;;;;29.37;31.43;101694.44;5054087;28;20072;-61
2022/09/05 11:09:49;;;;;;;2.55;1.17;;;;;;;29.36;31.73;101685.50;5054175;28;20110;-60
2022/09/05 11:12:38;;;;;;;2.95;1.38;;;;;;;29.43;31.13;101683.22;5054290;28;20118;-62
2022/09/05 11:15:20;;;;;;;6.47;1.30;;;;;;;29.39;30.57;101655.63;5054454;28;20033;-60
2022/09/05 11:17:54;;;;;;;2.45;1.42;;;;;;;29.58;31.07;101665.81;5054282;28;20040;-61
2022/09/05 11:20:41;;;;;;;3.63;1.50;;;;;;;29.60;30.47;101674.63;5054229;28;20060;-60
2022/09/05 11:23:18;;;;;;;2.90;1.42;;;;;;;29.58;30.72;101675.75;5053931;28;20106;-61
2022/09/05 11:25:46;;;;;;;3.47;1.60;;;;;;;29.62;30.50;101679.88;5053842;28;20408;-60
2022/09/05 11:28:21;;;;;;;3.63;1.67;;;;;;;29.65;30.80;101674.25;5053992;28;20083;-60
2022/09/05 11:30:52;;;;;;;2.60;1.50;;;;;;;29.65;30.60;101672.41;5053960;28;20028;-60
2022/09/05 11:33:48;;;;;;;3.28;1.80;;;;;;;29.79;30.52;101676.69;5053837;28;20462;-60
2022/09/05 11:36:19;;;;;;;3.25;1.70;;;;;;;29.74;30.25;101673.53;5053328;28;20024;-61
2022/09/05 11:38:47;;;;;;;3.85;1.73;;;;;;;29.84;30.20;101665.53;5053811;28;20032;-60
2022/09/05 11:41:34;;;;;;;3.55;1.20;;;;;;;29.92;30.39;101669.31;5053498;28;20063;-60
2022/09/05 11:44:16;;;;;;;1.98;1.33;;;;;;;30.20;29.82;101656.28;5053564;28;20103;-60
2022/09/05 11:47:24;;;;;;;2.38;1.15;;;;;;;30.75;30.11;101663.31;5053281;28;20047;-60
2022/09/05 11:50:30;;;;;;;2.60;1.40;;;;;;;30.63;29.77;101664.38;5052826;28;20041;-60
2022/09/05 11:52:56;;;;;;;2.90;1.40;;;;;;;30.48;29.08;101661.91;5053446;28;20040;-61
2022/09/05 11:55:42;;;;;;;3.15;1.40;;;;;;;30.56;30.17;101663.16;5053455;28;20095;-56
2022/09/05 11:58:30;;;;;;;2.30;1.40;;;;;;;30.57;29.96;101663.03;5052223;28;20349;-60
2022/09/05 12:01:08;;;;;;;2.03;1.40;;;;;;;30.56;29.39;101661.31;5053154;28;20440;-61
2022/09/05 12:03:51;;;;;;;3.00;1.40;;;;;;;30.43;29.89;101653.38;5052410;28;20120;-61
2022/09/05 12:06:39;;;;;;;4.45;1.55;;;;;;;30.42;29.82;101664.31;5053196;28;20028;-60
2022/09/05 12:09:16;;;;;;;1.95;1.40;;;;;;;30.42;29.87;101650.78;5053263;28;20037;-62
2022/09/05 12:11:54;;;;;;;2.58;1.58;;;;;;;30.49;29.56;101651.97;5053091;28;20379;-61
2022/09/05 12:14:28;;;;;;;3.50;1.48;;;;;;;30.61;29.88;101640.19;5053474;28;20048;-60
2022/09/05 12:17:04;;;;;;;6.13;1.40;;;;;;;30.64;29.99;101639.91;5053090;28;20037;-61
2022/09/05 12:19:40;;;;;;;4.15;1.38;;;;;;;30.68;29.08;101645.91;5053276;28;20083;-61
2022/09/05 12:22:18;;;;;;;2.28;1.42;;;;;;;30.58;29.82;101635.03;5052884;28;20476;-60
2022/09/05 12:25:14;;;;;;;1.90;1.35;;;;;;;30.73;29.90;101639.13;5053008;28;20041;-61
2022/09/05 12:27:46;;;;;;;1.92;1.30;;;;;;;30.48;29.14;101632.19;5052775;28;20074;-60
2022/09/05 12:30:19;;;;;;;5.15;1.58;;;;;;;30.59;28.86;101630.47;5052886;28;20087;-61